sensor_id;sensor_type;location;lat;lon;timestamp;P1;durP1;ratioP1;P2;durP2;ratioP2
23015;SDS011;11674;52.428;13.584;2023-04-19T00:00:28;7.28;;;3.83;;
23015;SDS011;11674;52.428;13.584;2023-04-19T00:05:36;7.93;;;3.65;;
23015;SDS011;11674;52.428;13.584;2023-04-19T00:10:43;7.72;;;3.30;;
23015;SDS011;11674;52.428;13.584;2023-04-19T00:15:50;11.43;;;4.05;;
23015;SDS011;11674;52.428;13.584;2023-04-19T00:20:57;6.82;;;3.30;;
23015;SDS011;11674;52.428;13.584;2023-04-19T00:26:04;5.75;;;2.97;;
23015;SDS011;11674;52.428;13.584;2023-04-19T00:31:11;5.97;;;3.30;;
23015;SDS011;11674;52.428;13.584;2023-04-19T00:36:18;7.13;;;3.10;;
23015;SDS011;11674;52.428;13.584;2023-04-19T00:41:25;7.32;;;2.97;;
23015;SDS011;11674;52.428;13.584;2023-04-19T00:46:32;5.82;;;3.38;;
23015;SDS011;11674;52.428;13.584;2023-04-19T00:51:39;8.02;;;2.92;;
23015;SDS011;11674;52.428;13.584;2023-04-19T00:56:46;5.40;;;2.92;;
23015;SDS011;11674;52.428;13.584;2023-04-19T01:01:53;5.65;;;2.67;;
23015;SDS011;11674;52.428;13.584;2023-04-19T01:07:03;4.63;;;2.60;;
23015;SDS011;11674;52.428;13.584;2023-04-19T01:12:10;6.45;;;2.30;;
23015;SDS011;11674;52.428;13.584;2023-04-19T01:17:18;5.65;;;2.63;;
23015;SDS011;11674;52.428;13.584;2023-04-19T01:22:25;6.40;;;2.70;;
23015;SDS011;11674;52.428;13.584;2023-04-19T01:27:32;5.47;;;2.40;;
23015;SDS011;11674;52.428;13.584;2023-04-19T01:32:39;5.63;;;2.80;;
23015;SDS011;11674;52.428;13.584;2023-04-19T01:37:46;9.30;;;3.03;;
23015;SDS011;11674;52.428;13.584;2023-04-19T01:42:53;5.53;;;2.72;;
23015;SDS011;11674;52.428;13.584;2023-04-19T01:48:01;7.68;;;2.65;;
23015;SDS011;11674;52.428;13.584;2023-04-19T01:53:08;8.27;;;3.10;;
23015;SDS011;11674;52.428;13.584;2023-04-19T01:58:15;9.25;;;2.78;;
23015;SDS011;11674;52.428;13.584;2023-04-19T02:03:22;5.85;;;2.92;;
23015;SDS011;11674;52.428;13.584;2023-04-19T02:08:29;5.65;;;2.38;;
23015;SDS011;11674;52.428;13.584;2023-04-19T02:13:37;20.73;;;10.32;;
23015;SDS011;11674;52.428;13.584;2023-04-19T02:18:44;9.38;;;3.03;;
23015;SDS011;11674;52.428;13.584;2023-04-19T02:23:52;5.25;;;2.67;;
23015;SDS011;11674;52.428;13.584;2023-04-19T02:28:59;8.10;;;3.03;;
23015;SDS011;11674;52.428;13.584;2023-04-19T02:34:06;6.22;;;2.70;;
23015;SDS011;11674;52.428;13.584;2023-04-19T02:39:13;7.32;;;3.10;;
23015;SDS011;11674;52.428;13.584;2023-04-19T02:44:20;9.00;;;2.90;;
23015;SDS011;11674;52.428;13.584;2023-04-19T02:49:29;6.10;;;2.42;;
23015;SDS011;11674;52.428;13.584;2023-04-19T02:54:37;8.55;;;2.80;;
23015;SDS011;11674;52.428;13.584;2023-04-19T02:59:43;4.30;;;2.30;;
23015;SDS011;11674;52.428;13.584;2023-04-19T03:04:50;10.55;;;4.80;;
23015;SDS011;11674;52.428;13.584;2023-04-19T03:09:58;9.43;;;3.88;;
23015;SDS011;11674;52.428;13.584;2023-04-19T03:15:06;8.00;;;3.55;;
23015;SDS011;11674;52.428;13.584;2023-04-19T03:20:13;17.20;;;8.70;;
23015;SDS011;11674;52.428;13.584;2023-04-19T03:25:20;15.60;;;3.15;;
23015;SDS011;11674;52.428;13.584;2023-04-19T03:30:37;7.07;;;3.05;;
23015;SDS011;11674;52.428;13.584;2023-04-19T03:35:43;9.07;;;4.47;;
23015;SDS011;11674;52.428;13.584;2023-04-19T03:40:51;4.78;;;2.78;;
23015;SDS011;11674;52.428;13.584;2023-04-19T03:46:01;7.55;;;4.28;;
23015;SDS011;11674;52.428;13.584;2023-04-19T03:51:08;7.10;;;2.40;;
23015;SDS011;11674;52.428;13.584;2023-04-19T03:56:14;6.93;;;2.65;;
23015;SDS011;11674;52.428;13.584;2023-04-19T04:01:22;6.43;;;2.70;;
23015;SDS011;11674;52.428;13.584;2023-04-19T04:06:30;6.45;;;2.90;;
23015;SDS011;11674;52.428;13.584;2023-04-19T04:11:36;7.30;;;3.60;;
23015;SDS011;11674;52.428;13.584;2023-04-19T04:16:44;7.55;;;3.92;;
23015;SDS011;11674;52.428;13.584;2023-04-19T04:21:50;9.95;;;3.63;;
23015;SDS011;11674;52.428;13.584;2023-04-19T04:26:58;5.78;;;2.28;;
23015;SDS011;11674;52.428;13.584;2023-04-19T04:32:08;5.60;;;2.70;;
23015;SDS011;11674;52.428;13.584;2023-04-19T04:37:16;7.47;;;3.50;;
23015;SDS011;11674;52.428;13.584;2023-04-19T04:42:23;6.97;;;2.60;;
23015;SDS011;11674;52.428;13.584;2023-04-19T04:47:32;6.05;;;2.78;;
23015;SDS011;11674;52.428;13.584;2023-04-19T04:52:39;9.57;;;2.95;;
23015;SDS011;11674;52.428;13.584;2023-04-19T04:57:54;13.68;;;5.20;;
23015;SDS011;11674;52.428;13.584;2023-04-19T05:03:11;5.25;;;2.67;;
23015;SDS011;11674;52.428;13.584;2023-04-19T05:08:26;6.55;;;3.90;;
23015;SDS011;11674;52.428;13.584;2023-04-19T05:13:45;6.57;;;2.58;;
23015;SDS011;11674;52.428;13.584;2023-04-19T05:18:53;7.28;;;2.90;;
23015;SDS011;11674;52.428;13.584;2023-04-19T05:24:02;7.38;;;2.38;;
23015;SDS011;11674;52.428;13.584;2023-04-19T05:29:08;11.90;;;2.85;;
23015;SDS011;11674;52.428;13.584;2023-04-19T05:34:28;8.25;;;2.70;;
23015;SDS011;11674;52.428;13.584;2023-04-19T05:39:36;5.57;;;2.83;;
23015;SDS011;11674;52.428;13.584;2023-04-19T05:44:43;5.63;;;2.20;;
23015;SDS011;11674;52.428;13.584;2023-04-19T05:49:51;6.70;;;2.70;;
23015;SDS011;11674;52.428;13.584;2023-04-19T05:55:07;3.22;;;2.33;;
23015;SDS011;11674;52.428;13.584;2023-04-19T06:00:18;6.45;;;2.22;;
23015;SDS011;11674;52.428;13.584;2023-04-19T06:05:33;6.32;;;2.25;;
23015;SDS011;11674;52.428;13.584;2023-04-19T06:10:39;4.57;;;2.25;;
23015;SDS011;11674;52.428;13.584;2023-04-19T06:15:47;13.45;;;2.83;;
23015;SDS011;11674;52.428;13.584;2023-04-19T06:20:54;8.82;;;2.20;;
23015;SDS011;11674;52.428;13.584;2023-04-19T06:26:01;5.50;;;2.25;;
23015;SDS011;11674;52.428;13.584;2023-04-19T06:31:08;10.43;;;2.30;;
23015;SDS011;11674;52.428;13.584;2023-04-19T06:36:16;6.55;;;2.00;;
23015;SDS011;11674;52.428;13.584;2023-04-19T06:41:23;5.57;;;1.88;;
23015;SDS011;11674;52.428;13.584;2023-04-19T06:46:30;4.63;;;2.10;;
23015;SDS011;11674;52.428;13.584;2023-04-19T06:51:38;17.20;;;3.25;;
23015;SDS011;11674;52.428;13.584;2023-04-19T06:56:45;6.70;;;2.00;;
23015;SDS011;11674;52.428;13.584;2023-04-19T07:01:53;4.18;;;1.67;;
23015;SDS011;11674;52.428;13.584;2023-04-19T07:07:00;4.43;;;1.90;;
23015;SDS011;11674;52.428;13.584;2023-04-19T07:12:07;4.82;;;2.03;;
23015;SDS011;11674;52.428;13.584;2023-04-19T07:17:14;5.07;;;1.77;;
23015;SDS011;11674;52.428;13.584;2023-04-19T07:22:21;5.75;;;2.17;;
23015;SDS011;11674;52.428;13.584;2023-04-19T07:27:28;3.15;;;1.80;;
23015;SDS011;11674;52.428;13.584;2023-04-19T07:32:35;3.85;;;1.85;;
23015;SDS011;11674;52.428;13.584;2023-04-19T07:37:42;6.75;;;1.98;;
23015;SDS011;11674;52.428;13.584;2023-04-19T07:42:49;4.45;;;2.20;;
23015;SDS011;11674;52.428;13.584;2023-04-19T07:47:56;4.15;;;2.10;;
23015;SDS011;11674;52.428;13.584;2023-04-19T07:53:03;6.28;;;1.80;;
23015;SDS011;11674;52.428;13.584;2023-04-19T07:58:10;2.80;;;1.65;;
23015;SDS011;11674;52.428;13.584;2023-04-19T08:03:17;4.15;;;1.80;;
23015;SDS011;11674;52.428;13.584;2023-04-19T08:08:24;10.85;;;2.10;;
23015;SDS011;11674;52.428;13.584;2023-04-19T08:13:32;8.73;;;2.08;;
23015;SDS011;11674;52.428;13.584;2023-04-19T08:18:39;3.60;;;1.90;;
23015;SDS011;11674;52.428;13.584;2023-04-19T08:23:46;9.57;;;1.98;;
23015;SDS011;11674;52.428;13.584;2023-04-19T08:28:53;5.78;;;2.35;;
23015;SDS011;11674;52.428;13.584;2023-04-19T08:34:00;6.57;;;2.30;;
23015;SDS011;11674;52.428;13.584;2023-04-19T08:39:07;2.95;;;2.05;;
23015;SDS011;11674;52.428;13.584;2023-04-19T08:44:15;5.57;;;2.70;;
23015;SDS011;11674;52.428;13.584;2023-04-19T08:49:22;6.25;;;2.25;;
23015;SDS011;11674;52.428;13.584;2023-04-19T08:54:31;3.92;;;2.20;;
23015;SDS011;11674;52.428;13.584;2023-04-19T08:59:37;6.97;;;2.40;;
23015;SDS011;11674;52.428;13.584;2023-04-19T09:04:44;5.80;;;2.28;;
23015;SDS011;11674;52.428;13.584;2023-04-19T09:10:04;7.55;;;2.75;;
23015;SDS011;11674;52.428;13.584;2023-04-19T09:15:12;4.77;;;2.20;;
23015;SDS011;11674;52.428;13.584;2023-04-19T09:20:19;10.77;;;2.90;;
23015;SDS011;11674;52.428;13.584;2023-04-19T09:31:18;6.00;;;2.50;;
23015;SDS011;11674;52.428;13.584;2023-04-19T09:36:26;12.73;;;2.83;;
23015;SDS011;11674;52.428;13.584;2023-04-19T09:41:49;9.38;;;3.42;;
23015;SDS011;11674;52.428;13.584;2023-04-19T09:46:56;6.72;;;2.70;;
23015;SDS011;11674;52.428;13.584;2023-04-19T09:52:03;8.05;;;2.45;;
23015;SDS011;11674;52.428;13.584;2023-04-19T09:57:10;5.40;;;2.72;;
23015;SDS011;11674;52.428;13.584;2023-04-19T10:02:17;5.97;;;2.75;;
23015;SDS011;11674;52.428;13.584;2023-04-19T10:07:26;9.45;;;3.08;;
23015;SDS011;11674;52.428;13.584;2023-04-19T10:12:33;4.38;;;2.75;;
23015;SDS011;11674;52.428;13.584;2023-04-19T10:17:41;4.32;;;2.60;;
23015;SDS011;11674;52.428;13.584;2023-04-19T10:22:48;4.05;;;2.60;;
23015;SDS011;11674;52.428;13.584;2023-04-19T10:27:56;6.80;;;2.70;;
23015;SDS011;11674;52.428;13.584;2023-04-19T10:33:03;4.68;;;2.28;;
23015;SDS011;11674;52.428;13.584;2023-04-19T10:38:13;6.88;;;2.38;;
23015;SDS011;11674;52.428;13.584;2023-04-19T10:43:24;7.47;;;2.72;;
23015;SDS011;11674;52.428;13.584;2023-04-19T10:48:33;8.05;;;2.83;;
23015;SDS011;11674;52.428;13.584;2023-04-19T10:53:45;10.48;;;2.78;;
23015;SDS011;11674;52.428;13.584;2023-04-19T11:04:06;6.82;;;2.45;;
23015;SDS011;11674;52.428;13.584;2023-04-19T11:09:20;7.55;;;2.80;;
23015;SDS011;11674;52.428;13.584;2023-04-19T11:14:32;4.78;;;2.75;;
23015;SDS011;11674;52.428;13.584;2023-04-19T11:19:51;7.35;;;2.90;;
23015;SDS011;11674;52.428;13.584;2023-04-19T11:25:32;5.80;;;3.13;;
23015;SDS011;11674;52.428;13.584;2023-04-19T11:30:31;7.60;;;3.25;;
23015;SDS011;11674;52.428;13.584;2023-04-19T11:35:39;11.65;;;2.92;;
23015;SDS011;11674;52.428;13.584;2023-04-19T11:40:45;7.43;;;3.03;;
23015;SDS011;11674;52.428;13.584;2023-04-19T11:45:52;10.93;;;3.13;;
23015;SDS011;11674;52.428;13.584;2023-04-19T11:51:00;9.18;;;2.90;;
23015;SDS011;11674;52.428;13.584;2023-04-19T11:56:07;5.15;;;2.70;;
23015;SDS011;11674;52.428;13.584;2023-04-19T12:01:16;5.60;;;2.60;;
23015;SDS011;11674;52.428;13.584;2023-04-19T12:06:28;6.40;;;2.80;;
23015;SDS011;11674;52.428;13.584;2023-04-19T12:11:42;5.57;;;2.33;;
23015;SDS011;11674;52.428;13.584;2023-04-19T12:17:04;6.47;;;2.35;;
23015;SDS011;11674;52.428;13.584;2023-04-19T12:22:16;7.43;;;2.75;;
23015;SDS011;11674;52.428;13.584;2023-04-19T12:27:25;7.53;;;3.42;;
23015;SDS011;11674;52.428;13.584;2023-04-19T12:32:31;5.88;;;2.60;;
23015;SDS011;11674;52.428;13.584;2023-04-19T12:37:39;6.47;;;2.60;;
23015;SDS011;11674;52.428;13.584;2023-04-19T12:42:46;4.60;;;2.67;;
23015;SDS011;11674;52.428;13.584;2023-04-19T12:47:52;8.50;;;2.88;;
23015;SDS011;11674;52.428;13.584;2023-04-19T12:52:59;3.55;;;2.20;;
23015;SDS011;11674;52.428;13.584;2023-04-19T12:58:07;7.22;;;2.65;;
23015;SDS011;11674;52.428;13.584;2023-04-19T13:03:14;8.30;;;3.20;;
23015;SDS011;11674;52.428;13.584;2023-04-19T13:08:21;8.88;;;3.58;;
23015;SDS011;11674;52.428;13.584;2023-04-19T13:13:28;7.45;;;3.20;;
23015;SDS011;11674;52.428;13.584;2023-04-19T13:18:35;5.88;;;3.30;;
23015;SDS011;11674;52.428;13.584;2023-04-19T13:23:42;12.80;;;3.30;;
23015;SDS011;11674;52.428;13.584;2023-04-19T13:28:50;6.05;;;2.88;;
23015;SDS011;11674;52.428;13.584;2023-04-19T13:33:57;8.10;;;3.08;;
23015;SDS011;11674;52.428;13.584;2023-04-19T13:39:04;7.97;;;3.10;;
23015;SDS011;11674;52.428;13.584;2023-04-19T13:44:11;7.00;;;2.88;;
23015;SDS011;11674;52.428;13.584;2023-04-19T13:49:18;6.63;;;2.88;;
23015;SDS011;11674;52.428;13.584;2023-04-19T13:54:25;6.50;;;3.15;;
23015;SDS011;11674;52.428;13.584;2023-04-19T13:59:32;5.03;;;2.63;;
23015;SDS011;11674;52.428;13.584;2023-04-19T14:04:39;5.65;;;2.85;;
23015;SDS011;11674;52.428;13.584;2023-04-19T14:09:46;5.82;;;3.03;;
23015;SDS011;11674;52.428;13.584;2023-04-19T14:14:53;8.90;;;3.08;;
23015;SDS011;11674;52.428;13.584;2023-04-19T14:20:00;8.00;;;3.25;;
23015;SDS011;11674;52.428;13.584;2023-04-19T14:25:07;9.13;;;3.80;;
23015;SDS011;11674;52.428;13.584;2023-04-19T14:30:14;9.35;;;3.38;;
23015;SDS011;11674;52.428;13.584;2023-04-19T14:35:21;7.45;;;3.20;;
23015;SDS011;11674;52.428;13.584;2023-04-19T14:40:28;7.38;;;2.90;;
23015;SDS011;11674;52.428;13.584;2023-04-19T14:45:35;10.20;;;3.65;;
23015;SDS011;11674;52.428;13.584;2023-04-19T14:50:42;4.68;;;2.65;;
23015;SDS011;11674;52.428;13.584;2023-04-19T14:55:49;11.45;;;3.40;;
23015;SDS011;11674;52.428;13.584;2023-04-19T15:00:56;8.23;;;3.58;;
23015;SDS011;11674;52.428;13.584;2023-04-19T15:06:04;6.88;;;3.63;;
23015;SDS011;11674;52.428;13.584;2023-04-19T15:11:11;8.50;;;3.70;;
23015;SDS011;11674;52.428;13.584;2023-04-19T15:16:18;10.77;;;3.55;;
23015;SDS011;11674;52.428;13.584;2023-04-19T15:21:25;15.73;;;4.03;;
23015;SDS011;11674;52.428;13.584;2023-04-19T15:26:32;8.75;;;4.25;;
23015;SDS011;11674;52.428;13.584;2023-04-19T15:31:41;14.38;;;4.75;;
23015;SDS011;11674;52.428;13.584;2023-04-19T15:36:48;12.05;;;4.85;;
23015;SDS011;11674;52.428;13.584;2023-04-19T15:41:55;10.52;;;4.70;;
23015;SDS011;11674;52.428;13.584;2023-04-19T15:47:02;9.27;;;4.57;;
23015;SDS011;11674;52.428;13.584;2023-04-19T15:52:09;8.63;;;5.22;;
23015;SDS011;11674;52.428;13.584;2023-04-19T15:57:16;12.73;;;5.70;;
23015;SDS011;11674;52.428;13.584;2023-04-19T16:02:23;13.73;;;5.20;;
23015;SDS011;11674;52.428;13.584;2023-04-19T16:07:30;10.80;;;5.03;;
23015;SDS011;11674;52.428;13.584;2023-04-19T16:12:44;17.20;;;5.50;;
23015;SDS011;11674;52.428;13.584;2023-04-19T16:17:51;12.93;;;4.82;;
23015;SDS011;11674;52.428;13.584;2023-04-19T16:22:58;13.30;;;4.90;;
23015;SDS011;11674;52.428;13.584;2023-04-19T16:28:05;9.57;;;4.53;;
23015;SDS011;11674;52.428;13.584;2023-04-19T16:33:12;12.52;;;5.05;;
23015;SDS011;11674;52.428;13.584;2023-04-19T16:38:19;8.25;;;4.20;;
23015;SDS011;11674;52.428;13.584;2023-04-19T16:43:26;15.70;;;5.03;;
23015;SDS011;11674;52.428;13.584;2023-04-19T16:48:33;15.35;;;4.93;;
23015;SDS011;11674;52.428;13.584;2023-04-19T16:53:40;8.65;;;4.38;;
23015;SDS011;11674;52.428;13.584;2023-04-19T16:58:47;11.10;;;5.35;;
23015;SDS011;11674;52.428;13.584;2023-04-19T17:03:54;15.00;;;5.43;;
23015;SDS011;11674;52.428;13.584;2023-04-19T17:09:01;18.02;;;5.80;;
23015;SDS011;11674;52.428;13.584;2023-04-19T17:14:08;12.98;;;4.90;;
23015;SDS011;11674;52.428;13.584;2023-04-19T17:19:15;14.02;;;5.15;;
23015;SDS011;11674;52.428;13.584;2023-04-19T17:24:22;16.80;;;6.00;;
23015;SDS011;11674;52.428;13.584;2023-04-19T17:29:29;17.98;;;6.38;;
23015;SDS011;11674;52.428;13.584;2023-04-19T17:34:36;9.20;;;5.40;;
23015;SDS011;11674;52.428;13.584;2023-04-19T17:39:43;11.50;;;5.82;;
23015;SDS011;11674;52.428;13.584;2023-04-19T17:44:50;11.27;;;6.13;;
23015;SDS011;11674;52.428;13.584;2023-04-19T17:50:06;11.40;;;5.60;;
23015;SDS011;11674;52.428;13.584;2023-04-19T17:55:16;12.65;;;6.47;;
23015;SDS011;11674;52.428;13.584;2023-04-19T18:00:23;9.85;;;6.20;;
23015;SDS011;11674;52.428;13.584;2023-04-19T18:05:30;15.18;;;6.68;;
23015;SDS011;11674;52.428;13.584;2023-04-19T18:10:37;15.40;;;6.55;;
23015;SDS011;11674;52.428;13.584;2023-04-19T18:15:44;13.90;;;7.63;;
23015;SDS011;11674;52.428;13.584;2023-04-19T18:20:51;12.50;;;6.75;;
23015;SDS011;11674;52.428;13.584;2023-04-19T18:25:59;17.33;;;7.32;;
23015;SDS011;11674;52.428;13.584;2023-04-19T18:31:07;12.52;;;5.68;;
23015;SDS011;11674;52.428;13.584;2023-04-19T18:36:15;11.60;;;6.00;;
23015;SDS011;11674;52.428;13.584;2023-04-19T18:41:22;12.35;;;5.90;;
23015;SDS011;11674;52.428;13.584;2023-04-19T18:46:29;15.90;;;6.20;;
23015;SDS011;11674;52.428;13.584;2023-04-19T18:51:43;11.90;;;6.55;;
23015;SDS011;11674;52.428;13.584;2023-04-19T18:56:50;14.63;;;8.23;;
23015;SDS011;11674;52.428;13.584;2023-04-19T19:01:58;14.82;;;7.35;;
23015;SDS011;11674;52.428;13.584;2023-04-19T19:07:05;12.85;;;6.75;;
23015;SDS011;11674;52.428;13.584;2023-04-19T19:12:12;12.50;;;6.22;;
23015;SDS011;11674;52.428;13.584;2023-04-19T19:17:19;14.10;;;8.27;;
23015;SDS011;11674;52.428;13.584;2023-04-19T19:22:26;21.92;;;10.45;;
23015;SDS011;11674;52.428;13.584;2023-04-19T19:27:33;14.00;;;6.97;;
23015;SDS011;11674;52.428;13.584;2023-04-19T19:32:40;17.73;;;9.13;;
23015;SDS011;11674;52.428;13.584;2023-04-19T19:37:47;15.35;;;7.75;;
23015;SDS011;11674;52.428;13.584;2023-04-19T19:42:54;15.98;;;8.65;;
23015;SDS011;11674;52.428;13.584;2023-04-19T19:48:01;17.60;;;8.15;;
23015;SDS011;11674;52.428;13.584;2023-04-19T19:53:08;16.55;;;9.32;;
23015;SDS011;11674;52.428;13.584;2023-04-19T19:58:15;21.05;;;10.18;;
23015;SDS011;11674;52.428;13.584;2023-04-19T20:03:22;15.07;;;8.68;;
23015;SDS011;11674;52.428;13.584;2023-04-19T20:08:29;17.52;;;9.00;;
23015;SDS011;11674;52.428;13.584;2023-04-19T20:13:36;17.65;;;8.00;;
23015;SDS011;11674;52.428;13.584;2023-04-19T20:18:43;15.52;;;7.93;;
23015;SDS011;11674;52.428;13.584;2023-04-19T20:23:50;13.73;;;7.72;;
23015;SDS011;11674;52.428;13.584;2023-04-19T20:28:57;15.82;;;7.88;;
23015;SDS011;11674;52.428;13.584;2023-04-19T20:34:04;16.67;;;8.75;;
23015;SDS011;11674;52.428;13.584;2023-04-19T20:39:27;18.67;;;8.77;;
23015;SDS011;11674;52.428;13.584;2023-04-19T20:44:34;21.05;;;7.47;;
23015;SDS011;11674;52.428;13.584;2023-04-19T20:49:41;16.48;;;8.98;;
23015;SDS011;11674;52.428;13.584;2023-04-19T20:54:48;15.52;;;8.13;;
23015;SDS011;11674;52.428;13.584;2023-04-19T20:59:55;15.27;;;9.13;;
23015;SDS011;11674;52.428;13.584;2023-04-19T21:05:02;15.57;;;8.43;;
23015;SDS011;11674;52.428;13.584;2023-04-19T21:10:09;13.30;;;7.88;;
23015;SDS011;11674;52.428;13.584;2023-04-19T21:15:16;16.10;;;8.50;;
23015;SDS011;11674;52.428;13.584;2023-04-19T21:20:23;16.30;;;8.82;;
23015;SDS011;11674;52.428;13.584;2023-04-19T21:25:30;20.45;;;9.32;;
23015;SDS011;11674;52.428;13.584;2023-04-19T21:30:37;12.40;;;8.38;;
23015;SDS011;11674;52.428;13.584;2023-04-19T21:35:44;13.82;;;9.15;;
23015;SDS011;11674;52.428;13.584;2023-04-19T21:40:54;13.00;;;9.10;;
23015;SDS011;11674;52.428;13.584;2023-04-19T21:46:01;13.73;;;9.40;;
23015;SDS011;11674;52.428;13.584;2023-04-19T21:51:08;14.13;;;9.02;;
23015;SDS011;11674;52.428;13.584;2023-04-19T21:56:15;16.92;;;9.95;;
23015;SDS011;11674;52.428;13.584;2023-04-19T22:01:22;17.40;;;10.90;;
23015;SDS011;11674;52.428;13.584;2023-04-19T22:06:29;14.07;;;9.88;;
23015;SDS011;11674;52.428;13.584;2023-04-19T22:11:37;17.10;;;10.10;;
23015;SDS011;11674;52.428;13.584;2023-04-19T22:16:44;16.42;;;11.02;;
23015;SDS011;11674;52.428;13.584;2023-04-19T22:21:52;17.70;;;10.95;;
23015;SDS011;11674;52.428;13.584;2023-04-19T22:26:59;16.50;;;10.80;;
23015;SDS011;11674;52.428;13.584;2023-04-19T22:32:06;16.15;;;10.15;;
23015;SDS011;11674;52.428;13.584;2023-04-19T22:37:13;17.38;;;10.60;;
23015;SDS011;11674;52.428;13.584;2023-04-19T22:42:20;16.95;;;9.95;;
23015;SDS011;11674;52.428;13.584;2023-04-19T22:47:27;17.13;;;9.75;;
23015;SDS011;11674;52.428;13.584;2023-04-19T22:52:34;16.30;;;10.25;;
23015;SDS011;11674;52.428;13.584;2023-04-19T22:57:41;17.40;;;10.48;;
23015;SDS011;11674;52.428;13.584;2023-04-19T23:02:48;16.55;;;10.45;;
23015;SDS011;11674;52.428;13.584;2023-04-19T23:07:55;14.93;;;9.90;;
23015;SDS011;11674;52.428;13.584;2023-04-19T23:13:03;16.20;;;9.55;;
23015;SDS011;11674;52.428;13.584;2023-04-19T23:18:11;15.27;;;10.60;;
23015;SDS011;11674;52.428;13.584;2023-04-19T23:23:18;15.85;;;10.15;;
23015;SDS011;11674;52.428;13.584;2023-04-19T23:28:25;15.68;;;10.00;;
23015;SDS011;11674;52.428;13.584;2023-04-19T23:33:32;19.33;;;11.00;;
23015;SDS011;11674;52.428;13.584;2023-04-19T23:38:39;17.00;;;10.10;;
23015;SDS011;11674;52.428;13.584;2023-04-19T23:43:46;18.05;;;11.13;;
23015;SDS011;11674;52.428;13.584;2023-04-19T23:48:53;18.67;;;11.18;;
23015;SDS011;11674;52.428;13.584;2023-04-19T23:54:00;15.38;;;10.85;;
23015;SDS011;11674;52.428;13.584;2023-04-19T23:59:07;16.55;;;10.65;;
